Time;durP1;ratioP1;P1;durP2;ratioP2;P2;SDS_P1;SDS_P2;PMS_P1;PMS_P2;Temp;Humidity;BMP_temperature;BMP_pressure;BME280_temperature;BME280_humidity;BME280_pressure;Samples;Min_cycle;Max_cycle;Signal;HPM_P1;HPM_P2
2021/12/13 00:02:10;;;;;;;5.70;3.70;;;;;;;5.85;72.32;99806.41;5020358;28;20041;-67
2021/12/13 00:04:43;;;;;;;5.53;2.90;;;;;;;5.98;71.26;99809.69;5020717;28;20207;-66
2021/12/13 00:07:22;;;;;;;5.90;3.20;;;;;;;5.93;71.27;99804.81;5017458;28;20099;-67
2021/12/13 00:09:51;;;;;;;7.07;3.57;;;;;;;5.86;71.25;99811.53;5016131;28;20471;-65
2021/12/13 00:12:34;;;;;;;4.03;2.97;;;;;;;5.87;71.94;99802.69;5019866;28;20117;-65
2021/12/13 00:15:02;;;;;;;6.25;3.42;;;;;;;5.95;71.98;99818.66;5002254;28;20049;-67
2021/12/13 00:17:36;;;;;;;3.95;3.22;;;;;;;6.09;71.12;99820.94;5001915;28;20042;-65
2021/12/13 00:20:29;;;;;;;5.80;3.00;;;;;;;6.04;70.61;99827.56;5017341;28;20036;-65
2021/12/13 00:22:59;;;;;;;5.40;3.08;;;;;;;6.10;70.11;99827.03;5015248;28;20049;-65
2021/12/13 00:25:28;;;;;;;4.00;2.90;;;;;;;6.15;70.36;99808.25;5021961;28;20026;-67
2021/12/13 00:28:06;;;;;;;5.30;3.13;;;;;;;6.30;69.43;99820.09;5020433;28;20045;-67
2021/12/13 00:30:46;;;;;;;4.50;2.92;;;;;;;6.33;68.46;99812.75;5018431;28;20089;-65
2021/12/13 00:33:14;;;;;;;4.82;3.25;;;;;;;6.13;69.13;99826.78;5020564;28;20029;-67
2021/12/13 00:35:52;;;;;;;5.82;2.83;;;;;;;6.18;69.50;99835.09;5021515;28;20036;-65
2021/12/13 00:38:24;;;;;;;4.30;2.85;;;;;;;6.27;67.79;99834.34;5002236;28;20084;-67
2021/12/13 00:40:59;;;;;;;3.83;2.80;;;;;;;6.19;68.95;99841.19;5020351;28;20045;-66
2021/12/13 00:43:50;;;;;;;3.77;2.57;;;;;;;6.14;69.09;99838.94;5002335;28;20109;-65
2021/12/13 00:46:17;;;;;;;3.90;3.00;;;;;;;6.37;67.52;99831.75;5019869;28;20033;-66
2021/12/13 00:48:46;;;;;;;5.32;3.13;;;;;;;6.34;67.84;99832.00;5019490;28;20101;-65
2021/12/13 00:51:29;;;;;;;4.47;3.00;;;;;;;6.23;67.63;99837.34;5019777;28;20032;-65
2021/12/13 00:53:58;;;;;;;3.80;2.75;;;;;;;6.24;67.71;99836.38;5020425;28;20026;-67
2021/12/13 00:56:45;;;;;;;4.68;3.08;;;;;;;6.35;68.49;99831.88;5020293;28;20026;-67
2021/12/13 00:59:21;;;;;;;3.90;2.80;;;;;;;6.10;68.19;99832.28;5017741;28;20040;-67
2021/12/13 01:01:57;;;;;;;7.00;3.55;;;;;;;6.07;67.98;99838.66;5020125;28;20036;-65
2021/12/13 01:04:55;;;;;;;4.83;3.37;;;;;;;6.11;68.70;99827.88;5020460;28;20030;-65
2021/12/13 01:07:32;;;;;;;4.93;3.08;;;;;;;6.19;68.84;99830.66;5020443;28;20034;-65
2021/12/13 01:10:42;;;;;;;7.05;3.67;;;;;;;6.00;69.76;99831.41;5019055;28;20032;-66
2021/12/13 01:13:16;;;;;;;5.10;3.28;;;;;;;6.01;69.31;99823.41;5016563;28;20069;-66
2021/12/13 01:15:52;;;;;;;;;;;;;;;5.93;69.57;99817.97;5020271;28;20089;-65
2021/12/13 01:21:40;;;;;;;6.03;3.00;;;;;;;5.85;70.69;99806.41;5003794;28;20270;-65
2021/12/13 01:24:40;;;;;;;4.33;2.90;;;;;;;5.75;69.91;99811.59;5017158;28;20025;-67
2021/12/13 01:27:05;;;;;;;4.53;3.03;;;;;;;5.73;70.13;99808.28;5016182;28;20056;-65
2021/12/13 01:29:30;;;;;;;4.00;2.90;;;;;;;5.76;70.49;99808.84;5021152;28;20345;-65
2021/12/13 01:32:00;;;;;;;3.95;3.03;;;;;;;5.88;70.40;99816.66;5020205;28;20201;-67
2021/12/13 01:34:28;;;;;;;5.23;3.43;;;;;;;5.96;69.75;99827.38;5024200;28;20255;-67
2021/12/13 01:37:05;;;;;;;4.05;2.88;;;;;;;5.89;69.91;99827.06;5024400;28;20312;-65
2021/12/13 01:39:33;;;;;;;4.03;2.90;;;;;;;5.85;69.21;99822.16;5022443;28;20044;-67
2021/12/13 01:42:11;;;;;;;3.70;2.97;;;;;;;5.86;68.64;99815.94;5023281;28;20114;-67
2021/12/13 01:44:42;;;;;;;3.77;2.70;;;;;;;5.70;69.17;99809.38;5022832;28;20033;-65
2021/12/13 01:47:12;;;;;;;5.27;3.00;;;;;;;5.71;70.08;99816.28;5023952;28;20038;-65
2021/12/13 01:49:45;;;;;;;5.30;3.43;;;;;;;5.95;68.99;99818.66;5023409;28;20323;-65
2021/12/13 01:52:18;;;;;;;4.47;2.90;;;;;;;6.02;69.12;99830.31;5022282;28;20048;-67
2021/12/13 01:54:45;;;;;;;4.43;3.00;;;;;;;5.93;68.82;99830.28;5022737;28;20037;-67
2021/12/13 02:00:17;;;;;;;3.73;2.73;;;;;;;5.91;68.53;99843.53;5003995;28;20022;-67
2021/12/13 02:03:02;;;;;;;3.80;3.00;;;;;;;5.83;69.09;99830.19;5004865;28;20030;-67
2021/12/13 02:05:31;;;;;;;6.70;3.17;;;;;;;6.00;69.49;99821.72;5017260;28;20021;-66
2021/12/13 02:08:11;;;;;;;4.53;2.73;;;;;;;5.75;69.41;99819.50;5022174;28;20239;-65
2021/12/13 02:10:45;;;;;;;4.68;3.22;;;;;;;5.87;70.16;99822.88;5023064;28;20037;-67
2021/12/13 02:13:26;;;;;;;4.65;2.78;;;;;;;5.91;70.22;99822.53;5022558;28;20079;-65
2021/12/13 02:18:49;;;;;;;4.20;2.80;;;;;;;5.74;69.61;99828.34;5004048;28;20053;-67
2021/12/13 02:21:36;;;;;;;6.17;3.10;;;;;;;5.68;69.99;99824.44;5004561;28;20030;-65
2021/12/13 02:24:07;;;;;;;2.73;2.40;;;;;;;5.70;70.23;99819.03;5021286;28;20045;-67
2021/12/13 02:26:36;;;;;;;4.17;2.67;;;;;;;5.72;70.48;99822.38;5004339;28;20053;-65
2021/12/13 02:29:08;;;;;;;5.63;3.40;;;;;;;5.72;70.19;99825.84;5022606;28;20072;-65
2021/12/13 02:31:38;;;;;;;3.70;2.65;;;;;;;5.71;70.98;99824.16;5022453;28;20029;-67
2021/12/13 02:34:12;;;;;;;5.53;2.67;;;;;;;5.79;70.59;99818.28;5023522;28;20084;-65
2021/12/13 02:36:42;;;;;;;8.13;3.20;;;;;;;5.86;69.93;99815.94;5022461;28;20022;-65
2021/12/13 02:39:18;;;;;;;3.03;2.20;;;;;;;5.63;70.12;99815.28;5019464;28;20120;-65
2021/12/13 02:41:45;;;;;;;2.87;2.40;;;;;;;5.70;70.61;99833.00;5022010;28;20041;-65
2021/12/13 02:44:23;;;;;;;4.73;3.00;;;;;;;5.67;71.06;99830.66;5022342;28;20044;-65
2021/12/13 02:46:49;;;;;;;4.47;2.87;;;;;;;5.64;70.75;99835.31;5020018;28;20215;-67
2021/12/13 02:49:17;;;;;;;6.90;3.28;;;;;;;5.68;70.87;99834.94;5023068;28;20056;-65
2021/12/13 02:51:48;;;;;;;4.20;2.67;;;;;;;5.92;70.82;99839.94;5021615;28;20116;-67
2021/12/13 02:54:27;;;;;;;3.60;2.73;;;;;;;5.74;71.22;99838.84;5021914;28;20050;-67
2021/12/13 02:57:08;;;;;;;2.88;2.45;;;;;;;5.80;70.91;99838.31;5021610;28;20045;-65
2021/12/13 02:59:36;;;;;;;3.22;2.50;;;;;;;5.83;70.44;99826.72;5022049;28;20049;-67
2021/12/13 03:02:07;;;;;;;11.05;5.05;;;;;;;5.81;70.33;99837.38;5022730;28;20114;-65
2021/12/13 03:04:34;;;;;;;7.78;2.92;;;;;;;5.80;70.54;99835.69;5022866;28;20034;-65
2021/12/13 03:07:21;;;;;;;5.07;2.60;;;;;;;5.75;70.80;99830.00;5021213;28;20041;-67
2021/12/13 03:09:52;;;;;;;4.23;2.97;;;;;;;5.68;71.42;99828.84;5019655;28;20391;-64
2021/12/13 03:12:21;;;;;;;4.30;3.10;;;;;;;5.91;70.76;99829.56;5004065;28;20343;-65
2021/12/13 03:14:56;;;;;;;3.53;2.60;;;;;;;5.83;70.53;99832.81;5021816;28;20220;-65
2021/12/13 03:17:37;;;;;;;5.27;2.50;;;;;;;5.62;70.93;99822.31;5021803;28;20042;-65
2021/12/13 03:20:29;;;;;;;5.73;3.27;;;;;;;5.71;70.76;99826.81;5021798;28;20033;-65
2021/12/13 03:23:17;;;;;;;3.93;2.60;;;;;;;5.77;70.74;99828.06;5023255;28;20108;-67
2021/12/13 03:26:03;;;;;;;3.40;2.28;;;;;;;5.76;70.76;99829.88;5021387;28;20041;-65
2021/12/13 03:29:06;;;;;;;3.80;2.80;;;;;;;5.76;69.52;99837.75;5022118;28;20041;-65
2021/12/13 03:31:43;;;;;;;2.88;2.30;;;;;;;5.71;70.71;99844.34;5022245;28;20101;-65
2021/12/13 03:34:14;;;;;;;3.95;2.38;;;;;;;5.80;70.76;99837.50;5021126;28;20109;-65
2021/12/13 03:36:42;;;;;;;3.60;2.45;;;;;;;5.96;70.45;99840.53;5020457;28;20061;-67
2021/12/13 03:39:11;;;;;;;3.70;2.83;;;;;;;5.85;69.91;99840.56;5020779;28;20030;-67
2021/12/13 03:41:41;;;;;;;3.72;2.85;;;;;;;5.84;69.91;99849.41;5021014;28;20026;-67
2021/12/13 03:44:10;;;;;;;3.60;2.58;;;;;;;5.92;70.57;99862.78;5020513;28;20036;-67
2021/12/13 03:46:37;;;;;;;3.53;2.57;;;;;;;6.03;70.02;99868.78;5020774;28;20029;-67
2021/12/13 03:49:06;;;;;;;4.65;2.55;;;;;;;6.30;69.52;99872.69;5020425;28;20034;-65
2021/12/13 03:51:36;;;;;;;4.43;2.90;;;;;;;6.13;68.63;99860.94;5020071;28;21359;-65
2021/12/13 03:54:04;;;;;;;6.38;2.97;;;;;;;6.11;68.68;99877.81;5020498;28;20033;-65
2021/12/13 03:56:39;;;;;;;4.50;2.63;;;;;;;6.15;69.23;99873.97;5020770;28;20018;-67
2021/12/13 03:59:13;;;;;;;7.28;3.30;;;;;;;5.98;69.28;99878.84;5019965;28;20049;-68
2021/12/13 04:01:53;;;;;;;4.27;2.67;;;;;;;6.20;68.94;99880.50;5020176;28;20026;-67
2021/12/13 04:04:28;;;;;;;3.47;2.53;;;;;;;6.30;68.59;99885.84;5019920;28;20025;-67
2021/12/13 04:06:58;;;;;;;3.00;2.10;;;;;;;6.14;68.96;99885.44;5017168;28;20052;-65
2021/12/13 04:09:26;;;;;;;3.95;2.30;;;;;;;6.15;69.80;99885.31;5020691;28;20080;-67
2021/12/13 04:11:55;;;;;;;4.43;2.70;;;;;;;5.90;70.02;99875.22;5021852;28;20050;-65
2021/12/13 04:14:29;;;;;;;3.22;2.67;;;;;;;5.94;70.20;99874.00;5021419;28;20022;-65
2021/12/13 04:17:05;;;;;;;;;;;;;;;6.00;70.28;99879.56;5022238;28;20036;-67
2021/12/13 04:19:46;;;;;;;3.67;2.20;;;;;;;6.05;69.31;99866.84;5021346;28;19943;-67
2021/12/13 04:22:13;;;;;;;5.00;3.20;;;;;;;5.93;69.03;99872.31;5020279;28;20033;-67
2021/12/13 04:24:44;;;;;;;3.47;2.20;;;;;;;5.93;69.47;99874.94;5020207;28;20045;-67
2021/12/13 04:27:24;;;;;;;5.10;2.95;;;;;;;5.94;69.83;99866.09;5020002;28;20124;-67
2021/12/13 04:29:55;;;;;;;5.15;3.17;;;;;;;5.76;70.46;99866.66;5000990;28;20038;-67
2021/12/13 04:32:31;;;;;;;4.23;3.00;;;;;;;5.80;70.48;99866.41;5001593;28;20030;-66
2021/12/13 04:35:00;;;;;;;10.03;4.13;;;;;;;5.70;70.34;99868.97;5017977;28;20049;-66
2021/12/13 04:37:34;;;;;;;6.35;3.00;;;;;;;5.71;71.19;99878.50;5021979;28;20093;-67
2021/12/13 04:40:06;;;;;;;6.20;2.93;;;;;;;5.89;70.37;99877.00;5020228;28;20335;-67
2021/12/13 04:42:32;;;;;;;5.13;3.63;;;;;;;6.02;69.93;99879.44;5019754;28;20215;-67
2021/12/13 04:45:00;;;;;;;4.90;3.05;;;;;;;5.90;70.04;99876.03;5019855;28;20053;-66
2021/12/13 04:47:32;;;;;;;5.82;3.78;;;;;;;5.89;70.43;99873.50;5020888;28;20062;-65
2021/12/13 04:50:12;;;;;;;3.65;2.60;;;;;;;5.84;70.30;99880.94;5020364;28;20030;-67
2021/12/13 04:52:39;;;;;;;6.20;3.67;;;;;;;5.80;70.82;99882.16;5019057;28;20037;-67
2021/12/13 04:55:10;;;;;;;6.85;3.97;;;;;;;5.89;71.17;99881.41;5020430;28;20045;-65
2021/12/13 04:57:36;;;;;;;4.97;3.15;;;;;;;5.66;70.99;99844.75;5019771;28;20231;-67
2021/12/13 05:00:09;;;;;;;5.73;3.40;;;;;;;5.87;70.90;99889.41;5020347;28;20249;-67
2021/12/13 05:02:35;;;;;;;4.27;3.23;;;;;;;5.99;70.55;99890.19;4984121;28;20122;-67
2021/12/13 05:05:03;;;;;;;5.05;3.22;;;;;;;5.93;71.21;99881.03;5001337;28;20444;-65
2021/12/13 05:07:31;;;;;;;5.57;3.60;;;;;;;5.91;71.38;99890.00;5018650;28;20389;-67
2021/12/13 05:09:58;;;;;;;5.47;2.85;;;;;;;6.02;70.98;99896.03;5018966;28;20034;-65
2021/12/13 05:12:28;;;;;;;4.30;3.00;;;;;;;6.08;70.53;99902.56;5019502;28;20065;-67
2021/12/13 05:14:58;;;;;;;5.20;3.20;;;;;;;6.17;69.79;99893.91;5017427;28;20231;-65
2021/12/13 05:17:37;;;;;;;16.48;5.75;;;;;;;5.94;71.17;99897.63;5020164;28;20042;-65
2021/12/13 05:20:38;;;;;;;6.28;3.40;;;;;;;5.93;70.27;99894.19;5019779;28;20271;-67
2021/12/13 05:23:19;;;;;;;7.45;4.10;;;;;;;5.99;71.36;99891.03;4978175;28;20038;-66
2021/12/13 05:25:57;;;;;;;6.35;3.72;;;;;;;5.96;70.68;99900.97;5003325;28;20076;-65
2021/12/13 05:28:28;;;;;;;6.07;3.83;;;;;;;6.02;70.37;99903.09;5020073;28;20041;-67
2021/12/13 05:30:58;;;;;;;9.70;5.15;;;;;;;5.84;70.49;99902.81;5021431;28;20141;-65
2021/12/13 05:33:28;;;;;;;7.90;4.07;;;;;;;5.69;72.50;99902.28;5020800;28;20114;-65
2021/12/13 05:35:57;;;;;;;14.65;7.40;;;;;;;5.71;73.23;99904.78;5021589;28;20161;-65
2021/12/13 05:38:33;;;;;;;9.80;4.68;;;;;;;5.65;74.84;99911.38;5019346;28;20341;-67
2021/12/13 05:41:04;;;;;;;4.53;3.60;;;;;;;5.58;75.19;99907.59;5021183;28;20102;-65
2021/12/13 05:43:37;;;;;;;5.13;3.50;;;;;;;5.41;76.16;99916.84;5020847;28;20099;-65
2021/12/13 05:46:19;;;;;;;6.70;4.20;;;;;;;5.37;76.47;99904.94;5020812;28;20288;-67
2021/12/13 05:48:56;;;;;;;5.33;3.63;;;;;;;5.30;77.57;99924.75;5004857;28;20041;-67
2021/12/13 05:51:30;;;;;;;7.05;4.28;;;;;;;5.49;78.25;99934.63;5020740;28;20053;-65
2021/12/13 05:54:24;;;;;;;7.60;4.47;;;;;;;5.47;78.63;99923.41;5020990;28;20033;-65
2021/12/13 05:57:07;;;;;;;6.97;3.97;;;;;;;5.47;79.00;99912.06;5013385;28;20058;-65
2021/12/13 06:00:17;;;;;;;8.07;4.50;;;;;;;5.48;78.12;99926.84;5021153;28;20033;-67
2021/12/13 06:03:07;;;;;;;8.13;4.53;;;;;;;5.36;78.78;99928.69;4986026;28;20056;-67
2021/12/13 06:05:49;;;;;;;10.43;5.03;;;;;;;5.19;80.40;99927.38;5018284;28;20319;-65
2021/12/13 06:08:24;;;;;;;10.17;5.17;;;;;;;5.29;80.78;99940.66;5020631;28;20232;-65
2021/12/13 06:10:59;;;;;;;8.30;4.95;;;;;;;5.49;79.45;99934.63;5018874;28;20048;-67
2021/12/13 06:13:43;;;;;;;7.23;4.60;;;;;;;5.31;80.63;99930.84;5016622;28;20219;-67
2021/12/13 06:16:09;;;;;;;8.17;5.23;;;;;;;5.19;81.26;99932.63;5019812;28;20109;-64
2021/12/13 06:18:57;;;;;;;8.10;4.93;;;;;;;5.20;81.89;99929.09;5019999;28;20741;-65
2021/12/13 06:21:34;;;;;;;11.60;4.50;;;;;;;4.99;81.70;99925.53;5020500;28;20192;-67
2021/12/13 06:24:00;;;;;;;7.53;5.00;;;;;;;5.01;82.30;99932.31;5003790;28;20033;-67
2021/12/13 06:26:30;;;;;;;11.03;6.57;;;;;;;4.99;83.37;99936.84;5022317;28;20264;-67
2021/12/13 06:28:59;;;;;;;13.30;7.13;;;;;;;4.98;83.73;99929.94;5024241;28;20037;-65
2021/12/13 06:31:35;;;;;;;12.40;7.73;;;;;;;5.00;83.92;99929.81;5023025;28;20242;-65
2021/12/13 06:34:07;;;;;;;8.47;5.50;;;;;;;4.91;83.85;99933.19;5019354;28;20041;-67
2021/12/13 06:36:52;;;;;;;11.20;5.63;;;;;;;4.89;83.99;99935.91;5023710;28;20033;-64
2021/12/13 06:39:30;;;;;;;8.80;5.70;;;;;;;4.98;84.29;99940.44;5023445;28;20040;-65
2021/12/13 06:42:03;;;;;;;10.10;6.50;;;;;;;4.93;84.04;99945.22;5022655;28;20342;-66
2021/12/13 06:44:36;;;;;;;10.20;5.68;;;;;;;4.97;83.89;99951.06;5024783;28;20033;-65
2021/12/13 06:47:07;;;;;;;8.90;5.90;;;;;;;5.04;84.17;99949.63;5022606;28;20109;-65
2021/12/13 06:49:43;;;;;;;8.30;5.53;;;;;;;4.92;84.79;99956.66;5024674;28;20026;-65
2021/12/13 06:52:11;;;;;;;11.60;6.27;;;;;;;4.96;84.85;99958.09;5023132;28;20044;-65
2021/12/13 06:54:41;;;;;;;8.03;5.77;;;;;;;4.87;85.00;99952.75;5004666;28;20045;-65
2021/12/13 06:57:11;;;;;;;10.20;6.57;;;;;;;4.75;85.67;99967.66;5022535;28;20034;-65
2021/12/13 06:59:49;;;;;;;10.73;5.97;;;;;;;4.66;86.16;99973.63;5023537;28;20026;-65
2021/12/13 07:02:19;;;;;;;15.60;6.10;;;;;;;4.70;86.40;99980.28;5021931;28;20269;-65
2021/12/13 07:05:03;;;;;;;8.40;5.20;;;;;;;4.76;87.15;99974.56;5018636;28;20100;-64
2021/12/13 07:07:39;;;;;;;8.18;4.88;;;;;;;4.78;85.93;99986.59;5018657;28;20033;-64
2021/12/13 07:10:12;;;;;;;9.63;5.73;;;;;;;4.59;86.40;99985.53;5022236;28;20048;-64
2021/12/13 07:12:46;;;;;;;12.18;5.43;;;;;;;4.77;86.29;99987.56;5022514;28;20073;-64
2021/12/13 07:15:45;;;;;;;11.20;5.53;;;;;;;4.36;86.76;99961.91;5021587;28;20228;-65
2021/12/13 07:18:29;;;;;;;8.23;5.23;;;;;;;4.63;86.77;99997.47;4983229;28;20038;-64
2021/12/13 07:20:55;;;;;;;16.58;7.40;;;;;;;4.55;87.13;99998.03;5003704;28;20308;-65
2021/12/13 07:23:21;;;;;;;9.47;6.10;;;;;;;4.60;87.31;100008.19;5022608;28;20033;-67
2021/12/13 07:25:50;;;;;;;11.43;6.70;;;;;;;4.54;88.24;100006.88;5022317;28;20029;-65
2021/12/13 07:28:51;;;;;;;13.30;6.80;;;;;;;4.69;88.10;100012.72;5022441;28;20057;-65
2021/12/13 07:31:17;;;;;;;13.53;7.97;;;;;;;4.69;88.11;100020.59;4992329;28;20092;-64
2021/12/13 07:33:45;;;;;;;14.13;7.07;;;;;;;4.63;89.19;100021.91;5023610;28;20132;-64
2021/12/13 07:36:26;;;;;;;13.13;8.03;;;;;;;4.61;89.78;100028.22;5023944;28;20034;-65
2021/12/13 07:38:57;;;;;;;11.50;6.57;;;;;;;4.72;90.16;100031.69;5023748;28;20216;-67
2021/12/13 07:41:25;;;;;;;11.73;7.30;;;;;;;4.60;90.39;100043.09;5022662;28;20026;-64
2021/12/13 07:43:50;;;;;;;11.00;7.03;;;;;;;4.72;91.13;100042.16;5023602;28;20042;-67
2021/12/13 07:46:19;;;;;;;11.23;7.00;;;;;;;4.71;90.79;100043.13;5014219;28;20190;-65
2021/12/13 07:48:44;;;;;;;9.93;6.43;;;;;;;4.65;91.62;100048.00;5002791;28;20243;-65
2021/12/13 07:51:28;;;;;;;12.03;7.20;;;;;;;4.60;92.54;100050.16;5003218;28;20061;-65
2021/12/13 07:54:05;;;;;;;11.85;7.13;;;;;;;4.63;92.14;100050.75;5002947;28;20045;-64
2021/12/13 07:56:37;;;;;;;12.33;7.60;;;;;;;4.63;92.52;100044.66;5003419;28;20034;-65
2021/12/13 07:59:21;;;;;;;16.67;9.40;;;;;;;4.70;93.28;100053.72;5002815;28;20092;-66
2021/12/13 08:02:15;;;;;;;33.95;13.55;;;;;;;4.68;92.62;100045.16;5002874;28;20110;-66
2021/12/13 08:04:49;;;;;;;19.77;11.33;;;;;;;4.70;92.98;100049.31;4986200;28;20078;-65
2021/12/13 08:07:21;;;;;;;14.90;8.80;;;;;;;4.69;93.10;100052.91;5002852;28;20058;-67
2021/12/13 08:09:52;;;;;;;14.73;8.37;;;;;;;4.55;93.54;100058.34;4985164;28;20030;-65
2021/12/13 08:12:17;;;;;;;12.83;8.07;;;;;;;4.57;93.60;100059.06;5002515;28;20251;-67
2021/12/13 08:14:46;;;;;;;11.70;7.27;;;;;;;4.61;93.38;100060.50;4986294;28;20034;-65
2021/12/13 08:17:23;;;;;;;11.77;7.17;;;;;;;4.65;93.57;100066.38;5006983;28;20124;-65
2021/12/13 08:19:58;;;;;;;11.10;7.63;;;;;;;4.76;93.18;100069.84;5006815;28;20065;-67
2021/12/13 08:22:28;;;;;;;14.70;8.53;;;;;;;4.88;92.94;100069.84;5005371;28;20504;-65
2021/12/13 08:24:58;;;;;;;14.90;8.17;;;;;;;4.73;93.57;100067.44;5007961;28;20036;-65
2021/12/13 08:27:31;;;;;;;13.33;8.00;;;;;;;4.83;93.63;100072.84;5006157;28;20094;-68
2021/12/13 08:30:27;;;;;;;16.93;8.63;;;;;;;4.70;94.05;100075.56;5006149;28;20331;-67
2021/12/13 08:33:13;;;;;;;12.87;6.97;;;;;;;4.86;93.62;100069.13;4996235;28;20038;-65
2021/12/13 08:36:01;;;;;;;11.03;6.27;;;;;;;4.81;93.64;100069.50;5006884;28;20030;-65
2021/12/13 08:39:02;;;;;;;9.43;6.63;;;;;;;4.81;93.72;100072.94;5008480;28;20287;-65
2021/12/13 08:41:47;;;;;;;10.40;6.60;;;;;;;4.90;93.41;100079.28;4990852;28;20166;-64
2021/12/13 08:44:12;;;;;;;12.07;7.40;;;;;;;4.81;93.71;100072.94;5006283;28;20028;-64
2021/12/13 08:46:40;;;;;;;10.73;6.57;;;;;;;4.79;93.90;100074.03;5006552;28;20049;-67
2021/12/13 08:49:26;;;;;;;10.93;6.90;;;;;;;4.84;94.16;100066.63;5006975;28;20084;-67
2021/12/13 08:52:23;;;;;;;11.23;7.40;;;;;;;4.56;95.81;100077.56;5004075;28;20035;-62
2021/12/13 08:55:00;;;;;;;10.63;6.33;;;;;;;4.30;96.98;100076.88;5010845;28;20092;-65
2021/12/13 08:57:44;;;;;;;10.40;6.30;;;;;;;4.37;97.49;100084.19;5021267;28;20030;-65
2021/12/13 09:00:12;;;;;;;11.93;7.20;;;;;;;4.55;96.61;100083.75;5021709;28;20323;-67
2021/12/13 09:02:43;;;;;;;15.13;8.00;;;;;;;4.56;97.30;100080.19;5021228;28;20085;-67
2021/12/13 09:05:17;;;;;;;13.33;7.77;;;;;;;4.54;97.20;100075.03;5021128;28;20042;-65
2021/12/13 09:07:55;;;;;;;;;;;;;;;4.58;96.67;100078.28;5021993;28;20065;-67
2021/12/13 09:10:34;;;;;;;14.27;7.23;;;;;;;4.40;97.29;100076.09;5021600;28;20145;-65
2021/12/13 09:12:59;;;;;;;14.70;8.10;;;;;;;4.54;97.78;100077.66;5021544;28;20066;-65
2021/12/13 09:15:30;;;;;;;15.40;8.43;;;;;;;4.42;97.51;100061.06;5021298;28;20073;-65
2021/12/13 09:17:55;;;;;;;16.13;8.63;;;;;;;4.45;98.22;100071.31;5020866;28;20092;-67
2021/12/13 09:20:41;;;;;;;14.17;7.17;;;;;;;4.46;98.68;100069.53;5021643;28;20189;-67
2021/12/13 09:23:12;;;;;;;11.67;7.37;;;;;;;4.65;97.90;100063.75;5021468;28;20133;-67
2021/12/13 09:25:52;;;;;;;10.33;7.63;;;;;;;4.44;98.34;100067.03;5019172;28;20030;-65
2021/12/13 09:28:22;;;;;;;13.83;7.77;;;;;;;4.59;98.35;100058.97;4988137;28;20073;-67
2021/12/13 09:31:00;;;;;;;13.47;7.83;;;;;;;4.68;96.92;100064.34;5001872;28;20069;-65
2021/12/13 09:33:33;;;;;;;10.03;6.87;;;;;;;4.37;99.08;100067.59;5001193;28;20105;-64
2021/12/13 09:36:03;;;;;;;11.50;7.47;;;;;;;4.40;99.68;100065.59;5001793;28;20026;-67
2021/12/13 09:38:28;;;;;;;11.73;7.70;;;;;;;4.49;99.42;100070.16;5020538;28;20049;-65
2021/12/13 09:41:04;;;;;;;12.20;7.90;;;;;;;4.55;99.08;100068.00;5020997;28;20029;-67
2021/12/13 09:44:01;;;;;;;11.93;7.90;;;;;;;4.73;98.38;100061.38;5021260;28;20038;-65
2021/12/13 09:46:41;;;;;;;14.40;8.20;;;;;;;4.68;97.92;100061.72;5020786;28;20038;-65
2021/12/13 09:49:21;;;;;;;14.27;9.40;;;;;;;4.72;97.44;100060.53;5020717;28;20064;-65
2021/12/13 09:52:11;;;;;;;14.20;9.27;;;;;;;4.65;97.10;100069.81;5020930;28;20243;-67
2021/12/13 09:54:43;;;;;;;18.37;8.77;;;;;;;4.60;98.04;100058.00;5021538;28;20033;-66
2021/12/13 09:57:18;;;;;;;12.57;7.87;;;;;;;4.60;98.00;100068.50;5024630;28;20022;-64
2021/12/13 09:59:48;;;;;;;11.83;7.43;;;;;;;4.55;98.23;100063.59;5024750;28;20319;-64
2021/12/13 10:02:42;;;;;;;10.53;6.60;;;;;;;4.54;98.45;100048.00;5024549;28;20080;-66
2021/12/13 10:05:12;;;;;;;10.00;6.65;;;;;;;4.48;99.05;100052.75;5023987;28;20029;-67
2021/12/13 10:07:44;;;;;;;10.33;6.83;;;;;;;4.64;98.58;100056.81;5024534;28;20040;-66
2021/12/13 10:10:39;;;;;;;12.47;8.03;;;;;;;4.71;98.28;100052.78;5024692;28;20053;-67
2021/12/13 10:13:11;;;;;;;14.40;8.07;;;;;;;4.78;98.30;100052.19;5017293;28;20227;-64
2021/12/13 10:15:40;;;;;;;13.87;8.07;;;;;;;4.73;98.05;100051.72;5024270;28;20331;-65
2021/12/13 10:18:11;;;;;;;14.63;8.23;;;;;;;4.70;97.39;100056.34;5023692;28;20041;-67
2021/12/13 10:20:45;;;;;;;12.50;8.00;;;;;;;4.63;98.06;100061.22;5024346;28;20034;-67
2021/12/13 10:23:17;;;;;;;12.03;7.47;;;;;;;4.68;98.25;100061.72;5024444;28;20030;-67
2021/12/13 10:25:47;;;;;;;13.13;7.80;;;;;;;4.58;98.67;100057.28;5023917;28;20034;-67
2021/12/13 10:28:19;;;;;;;11.67;7.43;;;;;;;4.70;98.48;100054.56;5024129;28;20077;-65
2021/12/13 10:30:56;;;;;;;11.20;7.33;;;;;;;4.77;98.35;100060.19;5024327;28;20291;-67
2021/12/13 10:33:24;;;;;;;15.17;7.70;;;;;;;4.69;97.65;100055.53;5024221;28;20323;-65
2021/12/13 10:35:52;;;;;;;14.73;7.70;;;;;;;4.72;96.56;100059.69;5023959;28;20022;-67
2021/12/13 10:38:27;;;;;;;12.20;8.07;;;;;;;4.59;97.61;100057.19;5024262;28;20050;-65
2021/12/13 10:41:03;;;;;;;16.07;11.57;;;;;;;4.78;97.52;100060.06;5023852;28;20096;-64
2021/12/13 10:43:46;;;;;;;13.70;7.70;;;;;;;4.67;97.61;100057.44;5022658;28;20057;-67
2021/12/13 10:46:15;;;;;;;12.73;8.20;;;;;;;4.65;98.81;100061.13;5023680;28;20030;-65
2021/12/13 10:48:45;;;;;;;13.23;7.20;;;;;;;4.57;99.04;100058.25;5023178;28;20022;-65
2021/12/13 10:51:19;;;;;;;13.63;7.07;;;;;;;4.63;98.58;100058.63;5021960;28;20042;-65
2021/12/13 10:53:47;;;;;;;14.37;7.90;;;;;;;4.61;98.77;100059.69;5005950;28;20223;-67
2021/12/13 10:56:18;;;;;;;11.70;7.23;;;;;;;4.65;98.57;100048.00;5004040;28;20445;-65
2021/12/13 10:58:50;;;;;;;11.57;7.17;;;;;;;4.54;99.17;100048.00;5022576;28;20041;-65
2021/12/13 11:01:23;;;;;;;14.33;8.07;;;;;;;4.64;98.74;100041.91;5023907;28;20026;-65
2021/12/13 11:03:50;;;;;;;18.10;9.03;;;;;;;4.62;99.63;100037.75;5023125;28;20037;-66
2021/12/13 11:06:19;;;;;;;15.90;9.13;;;;;;;4.70;98.67;100040.63;5019014;28;20030;-65
2021/12/13 11:08:45;;;;;;;14.87;8.67;;;;;;;4.82;98.86;100040.50;4986332;28;20289;-67
2021/12/13 11:11:34;;;;;;;16.23;8.50;;;;;;;4.97;97.67;100035.88;5004041;28;20252;-65
2021/12/13 11:14:06;;;;;;;11.87;7.20;;;;;;;4.70;98.07;100032.75;5003675;28;20174;-66
2021/12/13 11:16:38;;;;;;;11.30;7.80;;;;;;;4.66;98.00;100042.63;5003714;28;20042;-66
2021/12/13 11:19:06;;;;;;;13.93;7.33;;;;;;;4.72;97.95;100041.34;5003405;28;20093;-67
2021/12/13 11:21:35;;;;;;;12.63;7.37;;;;;;;4.72;98.06;100034.31;5003839;28;20084;-65
2021/12/13 11:24:01;;;;;;;11.13;6.20;;;;;;;4.68;98.04;100032.88;5003679;28;20032;-66
2021/12/13 11:26:31;;;;;;;11.90;7.03;;;;;;;4.67;97.78;100039.06;5003792;28;20097;-67
2021/12/13 11:29:00;;;;;;;11.43;7.03;;;;;;;4.73;98.25;100037.75;5023100;28;20644;-65
2021/12/13 11:31:28;;;;;;;9.10;6.27;;;;;;;4.59;98.15;100040.59;5005420;28;20260;-67
2021/12/13 11:34:00;;;;;;;14.13;6.97;;;;;;;4.49;98.49;100043.09;5022597;28;20279;-67
2021/12/13 11:37:03;;;;;;;12.73;7.00;;;;;;;4.54;98.45;100038.34;5022993;28;20235;-64
2021/12/13 11:40:06;;;;;;;12.87;6.97;;;;;;;4.49;99.30;100035.22;5023166;28;20042;-65
2021/12/13 11:42:37;;;;;;;12.07;8.17;;;;;;;4.28;99.11;100042.09;5022849;28;20062;-65
2021/12/13 11:45:33;;;;;;;12.40;8.17;;;;;;;4.46;99.92;100044.16;5022285;28;20077;-67
2021/12/13 11:48:09;;;;;;;10.47;6.83;;;;;;;4.51;99.55;100035.09;5022403;28;20041;-66
2021/12/13 11:51:28;;;;;;;11.20;6.43;;;;;;;4.68;98.47;100045.16;5021885;28;20048;-65
2021/12/13 11:54:24;;;;;;;19.73;8.03;;;;;;;4.62;97.24;100046.44;5014071;28;20034;-67
2021/12/13 11:57:20;;;;;;;13.37;6.93;;;;;;;4.50;97.65;100034.28;5006399;28;20035;-66
2021/12/13 12:00:00;;;;;;;11.43;6.70;;;;;;;4.51;98.50;100035.09;5006015;28;20072;-65
2021/12/13 12:03:02;;;;;;;12.60;7.43;;;;;;;4.39;98.81;100036.88;5007546;28;20205;-67
2021/12/13 12:05:55;;;;;;;11.17;6.70;;;;;;;4.45;98.80;100039.88;5006907;28;20387;-66
2021/12/13 12:08:34;;;;;;;13.70;7.10;;;;;;;4.49;98.55;100043.09;5007005;28;20029;-65
2021/12/13 12:11:03;;;;;;;13.00;6.93;;;;;;;4.49;98.31;100036.06;5007090;28;20379;-67
2021/12/13 12:14:03;;;;;;;12.53;6.67;;;;;;;4.51;98.00;100041.19;5007024;28;20057;-67
2021/12/13 12:16:29;;;;;;;15.00;7.97;;;;;;;4.51;97.85;100053.47;5006235;28;20100;-68
2021/12/13 12:18:56;;;;;;;11.00;6.40;;;;;;;4.47;98.18;100040.59;5006620;28;20046;-65
2021/12/13 12:21:47;;;;;;;12.83;7.10;;;;;;;4.34;98.69;100047.69;5006422;28;20030;-67
2021/12/13 12:24:19;;;;;;;14.77;8.10;;;;;;;4.49;97.94;100050.97;5006467;28;20034;-65